Time;durP1;ratioP1;P1;durP2;ratioP2;P2;SDS_P1;SDS_P2;PMS_P1;PMS_P2;Temp;Humidity;BMP_temperature;BMP_pressure;BME280_temperature;BME280_humidity;BME280_pressure;Samples;Min_cycle;Max_cycle;Signal;HPM_P1;HPM_P2
2021/11/17 06:24:25;;;;;;;73.28;44.80;;;;;;;;;;6351243;22;20029;-75
2021/11/17 06:26:52;;;;;;;90.50;48.25;;;;;;;;;;6321711;22;20462;-76
2021/11/17 06:29:19;;;;;;;70.45;45.58;;;;;;;;;;6323504;22;20375;-75
2021/11/17 06:31:46;;;;;;;61.58;40.33;;;;;;;;;;6323866;22;20059;-77
2021/11/17 06:34:30;;;;;;;60.28;39.80;;;;;;;;;;6350636;22;20010;-73
2021/11/17 06:40:13;;;;;;;53.78;36.00;;;;;;;;;;6352456;22;20014;-78
2021/11/17 06:42:44;;;;;;;51.85;35.25;;;;;;;;;;6360754;22;20076;-77
2021/11/17 06:45:21;;;;;;;50.67;33.85;;;;;;;;;;6337833;22;20068;-79
2021/11/17 06:48:19;;;;;;;51.10;35.28;;;;;;;;;;6362967;22;20007;-81
2021/11/17 06:51:20;;;;;;;48.40;32.95;;;;;;;;;;6288143;22;20009;-80
2021/11/17 06:54:17;;;;;;;51.95;33.22;;;;;;;;;;6246361;23;20039;-80
2021/11/17 06:57:20;;;;;;;44.50;30.17;;;;;;;;;;6247544;23;19992;-80
2021/11/17 07:00:09;;;;;;;44.78;29.08;;;;;;;;;;6181290;23;19997;-81
2021/11/17 07:05:56;;;;;;;38.05;27.52;;;;;;;;;;6151277;23;20041;-79
2021/11/17 07:13:34;;;;;;;35.05;25.55;;;;;;;;;;6332467;22;20091;-76
2021/11/17 07:23:51;;;;;;;34.22;24.92;;;;;;;;;;6354377;22;20070;-76
2021/11/17 07:26:20;;;;;;;37.15;24.05;;;;;;;;;;6361327;22;20017;-77
2021/11/17 07:28:46;;;;;;;32.63;24.35;;;;;;;;;;6322371;22;20009;-77
2021/11/17 07:31:36;;;;;;;39.60;28.42;;;;;;;;;;6319163;22;19983;-80
2021/11/17 07:39:37;;;;;;;37.00;24.77;;;;;;;;;;6341756;22;20030;-77
2021/11/17 07:42:03;;;;;;;35.08;23.63;;;;;;;;;;6314614;22;20056;-78
2021/11/17 07:44:30;;;;;;;31.10;23.23;;;;;;;;;;6341992;22;19998;-77
2021/11/17 07:46:58;;;;;;;28.75;22.23;;;;;;;;;;6341922;22;19991;-77
2021/11/17 07:49:24;;;;;;;32.03;23.58;;;;;;;;;;6317644;22;19998;-76
2021/11/17 07:51:51;;;;;;;31.60;21.00;;;;;;;;;;6347781;22;20003;-77
2021/11/17 07:54:19;;;;;;;28.83;21.45;;;;;;;;;;6322916;22;20332;-77
2021/11/17 07:56:45;;;;;;;31.15;23.52;;;;;;;;;;6316975;22;20013;-75
2021/11/17 07:59:14;;;;;;;26.20;19.88;;;;;;;;;;6347858;22;20132;-76
2021/11/17 08:01:42;;;;;;;25.55;19.42;;;;;;;;;;6343987;22;19998;-76
2021/11/17 08:04:08;;;;;;;21.73;17.55;;;;;;;;;;6316964;22;20010;-76
2021/11/17 08:06:34;;;;;;;25.00;18.80;;;;;;;;;;6316204;22;19999;-76
2021/11/17 08:09:02;;;;;;;26.80;19.42;;;;;;;;;;6316780;22;20010;-77
2021/11/17 08:11:28;;;;;;;22.67;18.30;;;;;;;;;;6319814;22;20002;-77
2021/11/17 08:13:56;;;;;;;24.88;18.85;;;;;;;;;;6359664;22;19987;-77
2021/11/17 08:16:22;;;;;;;23.33;18.38;;;;;;;;;;6349334;22;19999;-75
2021/11/17 08:18:50;;;;;;;26.08;17.48;;;;;;;;;;6347009;22;20018;-77
2021/11/17 08:21:16;;;;;;;25.05;18.40;;;;;;;;;;6320083;22;20063;-77
2021/11/17 08:24:14;;;;;;;29.52;19.48;;;;;;;;;;6334768;22;19993;-79
2021/11/17 08:26:46;;;;;;;24.77;17.65;;;;;;;;;;6355708;22;20014;-80
2021/11/17 08:29:16;;;;;;;26.27;19.27;;;;;;;;;;6359091;22;19998;-78
2021/11/17 08:32:02;;;;;;;27.10;19.88;;;;;;;;;;6203015;23;20102;-76
2021/11/17 08:34:30;;;;;;;25.25;17.23;;;;;;;;;;6179616;23;20020;-75
2021/11/17 08:37:01;;;;;;;25.40;20.05;;;;;;;;;;6203430;23;20033;-77
2021/11/17 08:39:28;;;;;;;27.27;19.50;;;;;;;;;;6197223;23;20055;-77
2021/11/17 08:42:02;;;;;;;27.65;21.17;;;;;;;;;;6206235;23;20005;-76
2021/11/17 08:44:46;;;;;;;27.60;19.25;;;;;;;;;;6210880;23;20005;-79
2021/11/17 08:47:49;;;;;;;27.70;17.75;;;;;;;;;;6208938;23;20476;-79
2021/11/17 08:50:17;;;;;;;28.70;20.23;;;;;;;;;;6144872;23;20037;-77
2021/11/17 08:53:24;;;;;;;26.50;18.38;;;;;;;;;;6142701;23;20010;-76
2021/11/17 08:55:52;;;;;;;25.02;16.92;;;;;;;;;;6134342;23;20010;-76
2021/11/17 08:58:46;;;;;;;23.15;18.02;;;;;;;;;;6149443;23;20010;-76
2021/11/17 09:01:12;;;;;;;;;;;;;;;;;;6085497;23;20041;-75
2021/11/17 09:03:39;;;;;;;24.77;17.45;;;;;;;;;;6176936;23;19907;-77
2021/11/17 09:06:06;;;;;;;24.05;18.48;;;;;;;;;;6190752;23;20005;-75
2021/11/17 09:08:40;;;;;;;23.63;17.25;;;;;;;;;;6189774;23;20154;-79
2021/11/17 09:11:28;;;;;;;23.08;17.23;;;;;;;;;;6164740;23;20005;-78
2021/11/17 09:14:06;;;;;;;22.77;17.42;;;;;;;;;;6191166;23;20435;-78
2021/11/17 09:16:34;;;;;;;26.85;18.63;;;;;;;;;;6169270;23;20008;-79
2021/11/17 09:19:11;;;;;;;24.33;19.23;;;;;;;;;;6202127;23;20028;-78
2021/11/17 09:21:59;;;;;;;30.58;21.10;;;;;;;;;;6256097;22;20002;-79
2021/11/17 09:24:29;;;;;;;25.00;18.15;;;;;;;;;;6207441;23;20087;-76
2021/11/17 09:27:04;;;;;;;31.38;19.40;;;;;;;;;;6242171;22;20000;-77
2021/11/17 09:29:40;;;;;;;30.85;21.63;;;;;;;;;;6323853;22;20010;-79
2021/11/17 09:32:19;;;;;;;22.65;17.42;;;;;;;;;;6279010;22;19984;-79
2021/11/17 09:35:08;;;;;;;27.08;17.45;;;;;;;;;;6334800;22;20045;-80
2021/11/17 09:37:52;;;;;;;30.00;21.00;;;;;;;;;;6336125;22;19994;-79
2021/11/17 09:40:50;;;;;;;31.67;22.65;;;;;;;;;;6272295;22;20011;-80
2021/11/17 09:43:45;;;;;;;25.23;18.27;;;;;;;;;;6265144;22;20012;-79
2021/11/17 09:46:30;;;;;;;26.15;17.55;;;;;;;;;;6258925;22;20424;-77
2021/11/17 09:48:58;;;;;;;25.05;18.05;;;;;;;;;;6262487;22;20031;-76
2021/11/17 09:51:30;;;;;;;26.85;19.75;;;;;;;;;;6236348;23;20106;-77
2021/11/17 09:54:32;;;;;;;25.67;18.40;;;;;;;;;;6244749;23;20419;-76
2021/11/17 10:03:11;;;;;;;25.25;18.92;;;;;;;;;;6305735;22;20026;-79
2021/11/17 10:21:41;;;;;;;27.35;18.80;;;;;;;;;;6317481;22;20037;-77
2021/11/17 10:48:21;;;;;;;18.10;14.68;;;;;;;;;;6346389;22;20030;-77
2021/11/17 10:50:48;;;;;;;21.98;15.48;;;;;;;;;;6349033;22;20010;-79
2021/11/17 10:53:25;;;;;;;22.65;15.85;;;;;;;;;;6319048;22;20006;-75
2021/11/17 10:55:55;;;;;;;21.65;15.20;;;;;;;;;;6355630;22;20420;-79
2021/11/17 10:58:24;;;;;;;20.08;15.38;;;;;;;;;;6338028;22;20048;-76
2021/11/17 11:01:00;;;;;;;20.98;14.73;;;;;;;;;;6339770;22;20049;-75
2021/11/17 11:03:46;;;;;;;18.67;13.85;;;;;;;;;;6332212;22;19997;-81
2021/11/17 11:16:53;;;;;;;34.33;18.42;;;;;;;;;;6343830;22;20022;-78
2021/11/17 11:24:50;;;;;;;34.28;23.98;;;;;;;;;;6328240;22;20013;-77
2021/11/17 11:27:26;;;;;;;38.45;18.65;;;;;;;;;;6336747;22;19999;-77
2021/11/17 11:30:06;;;;;;;65.43;24.17;;;;;;;;;;6336509;22;19987;-76
2021/11/17 11:32:34;;;;;;;108.53;38.13;;;;;;;;;;6334796;22;19999;-75
2021/11/17 11:35:03;;;;;;;29.98;20.33;;;;;;;;;;6363615;22;20436;-76
2021/11/17 11:37:54;;;;;;;21.63;14.85;;;;;;;;;;6362053;22;20001;-76
2021/11/17 11:41:00;;;;;;;24.27;16.55;;;;;;;;;;6330353;22;20078;-77
2021/11/17 11:43:29;;;;;;;22.00;15.25;;;;;;;;;;6330564;22;19991;-77
2021/11/17 11:45:56;;;;;;;28.92;16.95;;;;;;;;;;6298869;22;20125;-77
2021/11/17 11:48:29;;;;;;;26.10;15.35;;;;;;;;;;6322908;22;20003;-77
2021/11/17 11:54:35;;;;;;;27.23;18.90;;;;;;;;;;6327034;22;20067;-78
2021/11/17 12:00:19;;;;;;;24.52;16.77;;;;;;;;;;6342913;22;20046;-76
2021/11/17 12:02:48;;;;;;;23.17;15.20;;;;;;;;;;6313072;22;20013;-76
2021/11/17 12:05:24;;;;;;;17.58;13.48;;;;;;;;;;6338849;22;19998;-75
2021/11/17 12:07:55;;;;;;;20.08;14.60;;;;;;;;;;6340181;22;20069;-77
2021/11/17 12:10:21;;;;;;;19.52;14.57;;;;;;;;;;6320893;22;19999;-75
2021/11/17 12:12:49;;;;;;;24.10;14.35;;;;;;;;;;6362782;22;19983;-74
2021/11/17 12:15:28;;;;;;;16.25;13.05;;;;;;;;;;6335473;22;20006;-75
2021/11/17 12:18:09;;;;;;;18.65;14.00;;;;;;;;;;6365682;22;19995;-76
2021/11/17 12:20:37;;;;;;;24.08;15.43;;;;;;;;;;6332658;22;20007;-78
2021/11/17 12:26:29;;;;;;;55.70;43.10;;;;;;;;;;6366151;22;20054;-78
2021/11/17 12:29:25;;;;;;;28.63;19.27;;;;;;;;;;6308130;22;20006;-78
2021/11/17 12:35:05;;;;;;;19.98;15.85;;;;;;;;;;6357942;22;20424;-78
2021/11/17 12:37:35;;;;;;;26.65;16.38;;;;;;;;;;6350838;22;20316;-78
2021/11/17 12:40:13;;;;;;;24.13;17.77;;;;;;;;;;6301310;22;20037;-78
2021/11/17 12:42:41;;;;;;;25.00;17.05;;;;;;;;;;6327310;22;20030;-78
2021/11/17 12:45:31;;;;;;;25.88;19.73;;;;;;;;;;6327134;22;19999;-78
2021/11/17 12:48:10;;;;;;;23.92;17.63;;;;;;;;;;6354711;22;20003;-78
2021/11/17 12:50:39;;;;;;;22.25;16.67;;;;;;;;;;6353025;22;20003;-78
2021/11/17 12:53:14;;;;;;;20.88;16.42;;;;;;;;;;6326894;22;20370;-78
2021/11/17 12:55:43;;;;;;;22.85;16.83;;;;;;;;;;6349957;22;20007;-77
2021/11/17 12:58:11;;;;;;;26.98;18.63;;;;;;;;;;6355571;22;19991;-79
2021/11/17 13:00:42;;;;;;;30.40;19.60;;;;;;;;;;6355071;22;20027;-78
2021/11/17 13:03:23;;;;;;;21.65;15.27;;;;;;;;;;6355365;22;20006;-78
2021/11/17 13:09:11;;;;;;;20.08;16.10;;;;;;;;;;6346961;22;20048;-75
2021/11/17 13:11:56;;;;;;;27.88;18.45;;;;;;;;;;6328800;22;20034;-75
2021/11/17 13:14:22;;;;;;;27.13;18.85;;;;;;;;;;6329747;22;20039;-76
2021/11/17 13:20:12;;;;;;;23.13;17.97;;;;;;;;;;6363034;22;20029;-80
2021/11/17 13:27:56;;;;;;;31.75;19.50;;;;;;;;;;6355087;22;20026;-81
2021/11/17 13:43:25;;;;;;;22.13;17.30;;;;;;;;;;6353253;22;20018;-80
2021/11/17 13:46:20;;;;;;;24.58;18.20;;;;;;;;;;6310728;22;20005;-78
2021/11/17 13:48:54;;;;;;;27.60;19.20;;;;;;;;;;6360526;22;20042;-81
2021/11/17 13:54:19;;;;;;;25.63;19.05;;;;;;;;;;6361489;22;20042;-83
2021/11/17 13:59:56;;;;;;;32.33;21.45;;;;;;;;;;6365406;22;20006;-78
2021/11/17 14:02:27;;;;;;;29.23;21.38;;;;;;;;;;6333541;22;20003;-77
2021/11/17 14:04:53;;;;;;;32.25;21.10;;;;;;;;;;6322861;22;20321;-77
2021/11/17 14:07:22;;;;;;;30.25;21.98;;;;;;;;;;6349029;22;20022;-78
2021/11/17 17:09:53;;;;;;;100.90;62.85;;;179.70;2252.80;;;;;;6338519;22;20037;-76
2021/11/17 17:14:57;;;;;;;103.75;61.40;;;179.40;2252.80;;;;;;6347401;22;20107;-76
2021/11/17 17:18:20;;;;;;;96.80;60.10;;;179.70;2252.80;;;;;;6362414;22;20007;-80
2021/11/17 17:21:25;;;;;;;92.65;58.20;;;179.60;2252.80;;;;;;6289173;22;20007;-80
2021/11/17 17:34:33;;;;;;;106.70;60.55;;;179.30;2252.80;;;;;;6363304;22;20018;-77
2021/11/17 17:37:18;;;;;;;119.47;72.82;;;180.10;2252.80;;;;;;6335281;22;20114;-78
2021/11/17 17:39:44;;;;;;;175.77;102.35;;;179.50;2252.80;;;;;;6265974;22;20069;-79
2021/11/17 17:42:16;;;;;;;193.85;111.13;;;179.50;2252.80;;;;;;6259887;22;20003;-79
2021/11/17 17:44:44;;;;;;;148.13;89.28;;;179.50;2252.80;;;;;;6284817;22;20079;-77
2021/11/17 17:47:10;;;;;;;135.88;85.40;;;179.40;2252.80;;;;;;6253890;22;20039;-78
2021/11/17 17:49:37;;;;;;;122.32;71.43;;;179.40;2252.80;;;;;;6276542;22;20418;-77
2021/11/17 17:52:06;;;;;;;116.03;71.30;;;179.40;2252.80;;;;;;6278234;22;20081;-79
2021/11/17 17:54:37;;;;;;;121.05;76.18;;;179.40;2252.80;;;;;;6284539;22;20004;-78
2021/11/17 17:57:04;;;;;;;151.00;97.25;;;179.40;2252.80;;;;;;6261987;22;20476;-77
2021/11/17 17:59:31;;;;;;;152.30;98.07;;;179.30;2252.80;;;;;;6288496;22;20035;-77
2021/11/17 18:02:36;;;;;;;157.43;100.00;;;179.30;2252.80;;;;;;6291182;22;20063;-80
2021/11/17 18:18:48;;;;;;;166.40;98.90;;;179.80;2252.80;;;;;;6349301;22;20023;-78
2021/11/17 18:21:20;;;;;;;211.98;122.72;;;179.30;2252.80;;;;;;6324050;22;20057;-79
2021/11/17 18:23:47;;;;;;;239.65;136.85;;;179.30;2252.80;;;;;;6350143;22;20014;-79
2021/11/17 18:26:21;;;;;;;224.60;128.75;;;179.30;2252.80;;;;;;6351635;22;20002;-78
2021/11/17 18:28:46;;;;;;;246.63;139.02;;;179.30;2252.80;;;;;;6351334;22;20006;-79
2021/11/17 18:31:13;;;;;;;274.92;156.35;;;179.30;2252.80;;;;;;6327741;22;20018;-78
2021/11/17 18:48:41;;;;;;;254.23;137.73;;;179.20;2252.80;;;;;;6352880;22;20027;-77
2021/11/17 18:51:08;;;;;;;216.48;118.55;;;154.50;2252.80;;;;;;6350497;22;20003;-78
2021/11/17 18:53:43;;;;;;;197.00;110.07;;;154.50;2252.80;;;;;;6362046;22;20018;-79
2021/11/17 18:56:09;;;;;;;149.68;83.57;;;154.50;2252.80;;;;;;6292423;22;20075;-78
2021/11/17 18:59:02;;;;;;;146.18;81.63;;;154.50;2252.80;;;;;;6292254;22;20000;-77
2021/11/17 19:11:54;;;;;;;147.63;78.38;;;154.20;2252.80;;;;;;6347870;22;20026;-78
2021/11/17 19:14:19;;;;;;;127.75;74.75;;;154.40;2252.80;;;;;;6350922;22;20026;-78
2021/11/17 19:17:45;;;;;;;133.60;75.50;;;154.40;2252.80;;;;;;6323010;22;20007;-80
2021/11/17 19:20:14;;;;;;;151.02;84.55;;;154.40;2252.80;;;;;;6259015;23;20068;-79
2021/11/17 19:22:49;;;;;;;203.73;107.05;;;154.40;2252.80;;;;;;6261949;23;20015;-79
2021/11/17 19:25:26;;;;;;;203.82;101.95;;;154.40;2252.80;;;;;;6236696;23;19996;-79
2021/11/17 19:28:29;;;;;;;194.40;101.22;;;154.40;2252.80;;;;;;6238427;23;20024;-79
2021/11/17 19:31:07;;;;;;;188.32;98.85;;;154.40;2252.80;;;;;;6241317;23;19992;-79
2021/11/17 19:33:37;;;;;;;182.48;94.05;;;154.40;2252.80;;;;;;6264505;23;20004;-75
2021/11/17 19:36:14;;;;;;;169.52;90.63;;;154.40;2252.80;;;;;;6232015;23;20000;-77
2021/11/17 19:45:24;;;;;;;144.10;86.90;;;154.30;2252.80;;;;;;6211894;22;20065;-80
2021/11/17 19:47:59;;;;;;;126.47;76.35;;;154.30;2252.80;;;;;;6208508;22;19985;-79
2021/11/17 19:50:50;;;;;;;110.70;68.88;;;154.30;2252.80;;;;;;6160469;23;20001;-79
2021/11/17 19:53:43;;;;;;;100.78;64.82;;;154.30;2252.80;;;;;;6177066;23;20012;-79
2021/11/17 20:00:22;;;;;;;83.90;55.08;;;154.30;2252.80;;;;;;6150714;23;20113;-79
2021/11/17 20:03:18;;;;;;;88.65;53.90;;;154.30;2252.80;;;;;;6102004;23;20062;-79
2021/11/17 20:18:15;;;;;;;99.35;61.00;;;154.20;2252.80;;;;;;6358298;22;20015;-79
2021/11/17 20:21:28;;;;;;;100.22;59.67;;;154.10;2252.80;;;;;;6315344;22;20015;-79
2021/11/17 20:24:35;;;;;;;93.55;57.13;;;154.10;2252.80;;;;;;6270143;23;20051;-79
2021/11/17 20:28:12;;;;;;;87.55;57.00;;;154.10;2252.80;;;;;;6179633;23;20001;-79
2021/11/17 20:31:33;;;;;;;88.85;55.30;;;154.10;2252.80;;;;;;6115570;23;19994;-80
2021/11/17 20:35:02;;;;;;;96.72;58.33;;;154.10;2252.80;;;;;;6035080;23;19992;-80
2021/11/17 21:08:24;;;;;;;109.38;66.47;;;153.90;2252.80;;;;;;6353026;22;20023;-80
2021/11/17 21:31:12;;;;;;;171.43;107.88;;;128.90;2252.80;;;;;;6352398;22;20025;-80
2021/11/17 21:34:39;;;;;;;137.35;85.70;;;153.80;2252.80;;;;;;6237950;22;20032;-81
2021/11/17 21:38:11;;;;;;;107.80;70.30;;;153.80;2252.80;;;;;;6241149;22;20008;-80
2021/11/17 21:41:26;;;;;;;106.47;68.10;;;153.90;2252.80;;;;;;6123776;23;19999;-79
2021/11/17 21:44:17;;;;;;;;;;;153.80;2252.80;;;;;;6064280;23;19998;-80
2021/11/17 22:13:42;;;;;;;119.20;66.95;;;;;;;;;;6342993;22;20022;-80
2021/11/17 22:16:14;;;;;;;106.93;64.88;;;;;;;;;;6341508;22;19991;-81
2021/11/17 22:18:52;;;;;;;115.65;66.68;;;;;;;;;;6279926;22;20000;-79
2021/11/17 22:24:49;;;;;;;101.65;63.88;;;;;;;;;;6360344;22;20087;-80
2021/11/17 22:28:10;;;;;;;106.93;63.97;;;;;;;;;;6365887;22;20023;-79
2021/11/17 22:31:10;;;;;;;101.28;62.17;;;;;;;;;;6287673;22;19995;-80
2021/11/17 22:39:24;;;;;;;109.13;64.57;;;;;;;;;;6361810;22;20014;-81
2021/11/17 22:42:19;;;;;;;104.43;64.05;;;;;;;;;;5230454;23;23964932;-81
2021/11/17 22:45:16;;;;;;;96.63;61.92;;;;;;;;;;6273043;22;19993;-80
2021/11/17 22:48:04;;;;;;;95.57;60.92;;;;;;;;;;6267561;22;20030;-80
2021/11/17 22:50:47;;;;;;;90.60;59.88;;;;;;;;;;6226996;22;20004;-80
2021/11/17 22:57:15;;;;;;;82.25;56.00;;;;;;;;;;6212389;23;20077;-80
2021/11/17 23:02:31;;;;;;;85.75;54.78;;;;;;;;;;6160805;23;20024;-80
2021/11/17 23:05:06;;;;;;;92.15;55.40;;;;;;;;;;6151810;23;20010;-80
2021/11/17 23:07:47;;;;;;;85.68;54.38;;;;;;;;;;6149333;23;20062;-79
2021/11/17 23:10:35;;;;;;;79.07;52.17;;;;;;;;;;6150454;23;19998;-79
2021/11/17 23:13:41;;;;;;;85.97;54.45;;;;;;;;;;6151937;23;20050;-80
2021/11/17 23:16:29;;;;;;;94.63;59.08;;;;;;;;;;6150629;23;20022;-80
2021/11/17 23:18:58;;;;;;;85.13;57.85;;;;;;;;;;6151261;23;19982;-80
2021/11/17 23:21:26;;;;;;;84.88;57.92;;;;;;;;;;6151620;23;19990;-80
2021/11/17 23:24:24;;;;;;;78.25;53.38;;;;;;;;;;6148915;23;20006;-80
2021/11/17 23:27:01;;;;;;;76.32;53.72;;;;;;;;;;6229913;23;20000;-80
2021/11/17 23:29:42;;;;;;;89.93;55.80;;;;;;;;;;6244481;22;20056;-80
2021/11/17 23:32:12;;;;;;;86.03;57.38;;;;;;;;;;6333588;22;19991;-80
2021/11/17 23:34:46;;;;;;;85.72;57.72;;;;;;;;;;6333445;22;20007;-80
2021/11/17 23:37:36;;;;;;;79.35;54.08;;;;;;;;;;6332181;22;20066;-79
2021/11/17 23:40:29;;;;;;;81.50;53.22;;;;;;;;;;6303065;22;20007;-81
2021/11/17 23:43:12;;;;;;;79.22;54.42;;;;;;;;;;6226773;22;20022;-80
2021/11/17 23:46:04;;;;;;;83.95;55.25;;;;;;;;;;6301572;22;20003;-79
2021/11/17 23:48:45;;;;;;;82.65;54.15;;;;;;;;;;6300349;22;20398;-80
2021/11/17 23:51:13;;;;;;;83.15;57.53;;;;;;;;;;6299059;22;20008;-80
2021/11/17 23:54:00;;;;;;;99.30;62.90;;;;;;;;;;6276865;22;20008;-80
2021/11/17 23:56:49;;;;;;;104.40;64.57;;;;;;;;;;6299410;22;20071;-81
